Academia, Pennsylvania
Current Conditions -  °F | °C
As of 8:53 AM on Monday 20 Oct 2014 (Local Time) from KUNV Reporting Station
Broken Clouds Broken Clouds  
Wind Chill: 40°   Ceiling: 12000
Heat Index: 43°   Visibility: 10mi
Dew Point: 37°   Wind: 5mph
Humidity: 81%   Direction: 260°W
Pressure: 30.04"   Gusts: NA
Location:  40.4991°N, 77.4687°W
Report Text: KUNV 201253Z 26004KT 10SM BKN120 06/03 A3004
Loading
Personal Weather Stations






























Interactive Weather Map
Tropical Storm Tracking
New forecast layout! Learn more

10-Day Weather Forecast

Advertisements
Track Severe Weather on mobile